createdAt,value
2018-11-11T00:01:33.858Z,99079.17
2018-11-11T00:04:08.234Z,99036.91
2018-11-11T00:06:46.344Z,99077.55
2018-11-11T00:09:18.265Z,99066.51
2018-11-11T00:11:52.814Z,99061.13
2018-11-11T00:14:29.230Z,99067.47
2018-11-11T00:17:00.541Z,99064.72
2018-11-11T00:19:39.233Z,99060.47
2018-11-11T00:22:17.582Z,99059.06
2018-11-11T00:24:50.556Z,99054.72
2018-11-11T00:27:22.526Z,99067.27
2018-11-11T00:29:57.288Z,99064.72
2018-11-11T00:32:34.203Z,99074.75
2018-11-11T00:35:07.271Z,99082.80
2018-11-11T00:37:41.696Z,99073.77
2018-11-11T00:40:15.250Z,99068.17
2018-11-11T00:42:46.539Z,99061.33
2018-11-11T00:45:24.165Z,99068.81
2018-11-11T00:48:00.989Z,99057.95
2018-11-11T00:50:33.193Z,99064.45
2018-11-11T00:53:06.208Z,99070.14
2018-11-11T00:55:43.909Z,99066.84
2018-11-11T00:58:20.186Z,99070.20
2018-11-11T01:00:54.706Z,99066.66
2018-11-11T01:03:25.609Z,99057.17
2018-11-11T01:05:59.235Z,99028.19
2018-11-11T01:08:33.359Z,99055.37
2018-11-11T01:11:10.776Z,99063.67
2018-11-11T01:13:43.033Z,99068.06
2018-11-11T01:16:18.124Z,99073.03
2018-11-11T01:18:51.130Z,99074.20
2018-11-11T01:21:25.819Z,99073.31
2018-11-11T01:23:58.918Z,99078.28
2018-11-11T01:26:31.172Z,99071.42
2018-11-11T01:29:04.777Z,99074.25
2018-11-11T01:31:40.749Z,99090.16
2018-11-11T01:34:17.672Z,99086.56
2018-11-11T01:36:54.000Z,99091.12
2018-11-11T01:39:24.181Z,99076.13
2018-11-11T01:41:57.756Z,99088.45
2018-11-11T01:44:30.857Z,99089.95
2018-11-11T01:47:03.385Z,99109.55
2018-11-11T01:49:42.135Z,99111.30
2018-11-11T01:52:14.852Z,99118.16
2018-11-11T01:54:46.030Z,99116.28
2018-11-11T01:57:19.288Z,99112.22
2018-11-11T01:59:53.968Z,99113.19
2018-11-11T02:02:27.124Z,99102.66
2018-11-11T02:05:00.625Z,99111.36
2018-11-11T02:07:34.224Z,99100.22
2018-11-11T02:10:06.482Z,99097.70
2018-11-11T02:12:39.097Z,99088.80
2018-11-11T02:15:15.516Z,99092.08
2018-11-11T02:17:47.350Z,99088.20
2018-11-11T02:20:22.512Z,99092.01
2018-11-11T02:22:56.721Z,99093.09
2018-11-11T02:25:30.047Z,99085.28
2018-11-11T02:28:02.731Z,99101.22
2018-11-11T02:30:37.020Z,99101.67
2018-11-11T02:33:12.598Z,99105.53
2018-11-11T02:35:46.929Z,99118.09
2018-11-11T02:38:23.540Z,99109.70
2018-11-11T02:40:54.663Z,99114.42
2018-11-11T02:43:27.418Z,99113.35
2018-11-11T02:45:59.832Z,99113.02
2018-11-11T02:48:30.802Z,99087.97
2018-11-11T02:51:01.205Z,99106.43
2018-11-11T02:53:37.044Z,99099.94
2018-11-11T02:56:12.645Z,99100.01
2018-11-11T02:58:46.166Z,99105.84
2018-11-11T03:01:18.769Z,99096.35
2018-11-11T03:03:55.323Z,99090.58
2018-11-11T03:06:27.488Z,99091.00
2018-11-11T03:09:05.079Z,99047.66
2018-11-11T03:11:35.258Z,99088.20
2018-11-11T03:14:10.512Z,99079.45
2018-11-11T03:16:41.452Z,99082.44
2018-11-11T03:19:21.162Z,99080.52
2018-11-11T03:21:54.732Z,99090.45
2018-11-11T03:24:30.163Z,99085.99
2018-11-11T03:27:06.742Z,99084.34
2018-11-11T03:29:46.952Z,99094.06
2018-11-11T03:32:18.960Z,99090.06
2018-11-11T03:34:52.961Z,99079.16
2018-11-11T03:37:25.221Z,99068.75
2018-11-11T03:39:55.933Z,99065.72
2018-11-11T03:42:28.748Z,99049.16
2018-11-11T03:44:59.432Z,99059.30
2018-11-11T03:47:32.183Z,99068.19
2018-11-11T03:50:15.348Z,99061.81
2018-11-11T03:52:47.828Z,99070.93
2018-11-11T03:55:21.799Z,99041.66
2018-11-11T03:57:55.379Z,99060.31
2018-11-11T04:00:29.576Z,99058.55
2018-11-11T04:03:03.102Z,99061.17
2018-11-11T04:05:44.560Z,99066.25
2018-11-11T04:08:18.998Z,99053.95
2018-11-11T04:10:50.319Z,99052.75
2018-11-11T04:13:26.266Z,99040.47
2018-11-11T04:16:05.511Z,99047.08
2018-11-11T04:18:40.792Z,99019.50
2018-11-11T04:21:16.954Z,99049.27
2018-11-11T04:23:54.209Z,99056.51
2018-11-11T04:26:33.601Z,99055.92
2018-11-11T04:29:06.472Z,99047.23
2018-11-11T04:31:40.509Z,99049.61
2018-11-11T04:34:14.019Z,99046.53
2018-11-11T04:36:51.441Z,99052.74
2018-11-11T04:39:28.477Z,99053.50
2018-11-11T04:42:02.604Z,99055.27
2018-11-11T04:44:42.267Z,99045.12
2018-11-11T04:47:16.006Z,99064.27
2018-11-11T04:49:48.988Z,99051.27
2018-11-11T04:52:24.177Z,99043.02
2018-11-11T04:54:55.912Z,99043.05
2018-11-11T04:57:34.032Z,99050.22
2018-11-11T05:00:08.262Z,99048.34
2018-11-11T05:02:41.736Z,99051.87
2018-11-11T05:05:16.274Z,99049.31
2018-11-11T05:07:50.364Z,99053.21
2018-11-11T05:10:24.304Z,99053.61
2018-11-11T05:12:54.808Z,99056.87
2018-11-11T05:15:27.616Z,99065.31
2018-11-11T05:18:03.172Z,99049.33
2018-11-11T05:20:35.017Z,99072.13
2018-11-11T05:23:08.200Z,99077.07
2018-11-11T05:25:40.358Z,99085.06
2018-11-11T05:28:12.646Z,99095.53
2018-11-11T05:30:43.610Z,99093.66
2018-11-11T05:33:16.204Z,99090.58
2018-11-11T05:35:49.560Z,99086.48
2018-11-11T05:38:22.345Z,99043.44
2018-11-11T05:40:53.221Z,99106.38
2018-11-11T05:43:26.061Z,99111.54
2018-11-11T05:45:58.619Z,99119.29
2018-11-11T05:48:30.764Z,99125.73
2018-11-11T05:51:04.001Z,99140.61
2018-11-11T05:53:37.774Z,99141.81
2018-11-11T05:56:12.062Z,99139.77
2018-11-11T05:58:43.496Z,99141.45
2018-11-11T06:01:39.858Z,99149.38
2018-11-11T06:04:13.646Z,99149.63
2018-11-11T06:06:47.218Z,99162.73
2018-11-11T06:09:20.471Z,99169.74
2018-11-11T06:11:55.712Z,99169.72
2018-11-11T06:14:29.324Z,99183.68
2018-11-11T06:17:06.650Z,99197.48
2018-11-11T06:19:38.817Z,99187.55
2018-11-11T06:22:13.856Z,99194.69
2018-11-11T06:24:45.037Z,99194.27
2018-11-11T06:27:17.325Z,99196.22
2018-11-11T06:29:51.633Z,99195.77
2018-11-11T06:32:26.873Z,99192.09
2018-11-11T06:34:58.557Z,99192.75
2018-11-11T06:37:28.692Z,99200.67
2018-11-11T06:40:03.180Z,99200.23
2018-11-11T06:42:37.559Z,99201.41
2018-11-11T06:45:16.634Z,99205.36
2018-11-11T06:47:54.957Z,99190.80
2018-11-11T06:50:31.297Z,99198.42
2018-11-11T06:53:03.206Z,99189.61
2018-11-11T06:55:37.305Z,99187.05
2018-11-11T06:58:12.112Z,99190.40
2018-11-11T07:00:43.782Z,99186.37
2018-11-11T07:03:26.192Z,99179.21
2018-11-11T07:06:01.189Z,99167.31
2018-11-11T07:08:36.543Z,99178.69
2018-11-11T07:11:12.090Z,99186.45
2018-11-11T07:13:49.833Z,99185.93
2018-11-11T07:16:23.982Z,99194.91
2018-11-11T07:18:56.758Z,99192.10
2018-11-11T07:21:30.824Z,99195.45
2018-11-11T07:24:06.116Z,99190.32
2018-11-11T07:26:39.052Z,99190.69
2018-11-11T07:29:15.978Z,99188.20
2018-11-11T07:31:49.999Z,99198.77
2018-11-11T07:34:22.404Z,99181.59
2018-11-11T07:36:54.458Z,99198.42
2018-11-11T07:39:28.189Z,99197.39
2018-11-11T07:42:03.558Z,99205.53
2018-11-11T07:44:39.471Z,99207.24
2018-11-11T07:47:12.104Z,99220.62
2018-11-11T07:49:45.160Z,99228.09
2018-11-11T07:52:18.237Z,99227.14
2018-11-11T07:54:50.014Z,99231.78
2018-11-11T07:57:23.840Z,99230.69
2018-11-11T07:59:56.803Z,99235.30
2018-11-11T08:02:29.405Z,99257.59
2018-11-11T08:05:05.765Z,99264.52
2018-11-11T08:07:39.667Z,99262.56
2018-11-11T08:10:23.816Z,99225.28
2018-11-11T08:12:57.511Z,99279.63
2018-11-11T08:15:29.726Z,99239.30
2018-11-11T08:18:07.373Z,99273.78
2018-11-11T08:20:40.532Z,99282.32
2018-11-11T08:23:13.583Z,99279.45
2018-11-11T08:25:45.851Z,99272.56
2018-11-11T08:28:19.528Z,99262.59
2018-11-11T08:30:56.331Z,99264.20
2018-11-11T08:33:31.988Z,99274.53
2018-11-11T08:36:08.654Z,99277.58
2018-11-11T08:38:46.253Z,99299.59
2018-11-11T08:41:23.423Z,99310.31
2018-11-11T08:43:57.996Z,99322.71
2018-11-11T08:46:34.217Z,99316.38
2018-11-11T08:49:10.423Z,99323.17
2018-11-11T08:51:47.407Z,99310.45
2018-11-11T08:54:25.180Z,99301.47
2018-11-11T08:56:58.106Z,99306.02
2018-11-11T08:59:40.813Z,99205.12
2018-11-11T09:02:22.260Z,99303.24
2018-11-11T09:04:56.334Z,99314.77
2018-11-11T09:07:32.244Z,99317.03
2018-11-11T09:10:09.150Z,99311.67
2018-11-11T09:12:44.484Z,99314.34
2018-11-11T09:15:22.690Z,99313.39
2018-11-11T09:18:02.752Z,99306.55
2018-11-11T09:20:43.256Z,99303.95
2018-11-11T09:23:20.378Z,99323.63
2018-11-11T09:26:04.449Z,99334.09
2018-11-11T09:28:42.366Z,99311.84
2018-11-11T09:31:16.995Z,99335.16
2018-11-11T09:33:55.484Z,99335.69
2018-11-11T09:36:34.002Z,99340.20
2018-11-11T09:39:09.166Z,99345.12
2018-11-11T09:41:42.302Z,99341.31
2018-11-11T09:44:17.811Z,99334.05
2018-11-11T09:46:52.225Z,99330.94
2018-11-11T09:49:27.236Z,99329.36
2018-11-11T09:52:01.417Z,99338.45
2018-11-11T09:54:36.843Z,99329.09
2018-11-11T09:57:12.984Z,99333.19
2018-11-11T09:59:44.559Z,99331.53
2018-11-11T10:02:23.429Z,99331.02
2018-11-11T10:05:10.465Z,99333.52
2018-11-11T10:07:58.287Z,99324.20
2018-11-11T10:11:07.943Z,99324.25
2018-11-11T10:13:57.844Z,99323.07
2018-11-11T10:18:48.063Z,99333.19
2018-11-11T10:22:01.093Z,99310.30
2018-11-11T10:25:14.145Z,99317.73
2018-11-11T10:29:58.040Z,99329.77
2018-11-11T10:32:44.020Z,99336.41
2018-11-11T10:35:31.155Z,99332.00
2018-11-11T10:38:17.750Z,99329.97
2018-11-11T10:41:01.634Z,99329.28
2018-11-11T10:43:49.264Z,99316.81
2018-11-11T10:46:40.665Z,99330.34
2018-11-11T10:49:38.879Z,99331.47
2018-11-11T10:52:15.574Z,99331.92
2018-11-11T10:54:49.822Z,99333.13
2018-11-11T10:57:30.931Z,99337.72
2018-11-11T11:00:10.101Z,99322.20
2018-11-11T11:02:54.691Z,99335.92
2018-11-11T11:05:33.189Z,99338.09
2018-11-11T11:08:11.201Z,99337.53
2018-11-11T11:10:47.576Z,99338.09
2018-11-11T11:13:22.448Z,99329.05
2018-11-11T11:15:59.405Z,99320.89
2018-11-11T11:18:33.597Z,99317.45
2018-11-11T11:21:11.016Z,99316.34
2018-11-11T11:23:49.462Z,99326.09
2018-11-11T11:26:28.535Z,99334.34
2018-11-11T11:29:09.208Z,99337.66
2018-11-11T11:31:46.677Z,99341.92
2018-11-11T11:34:26.345Z,99332.20
2018-11-11T11:37:00.149Z,99320.30
2018-11-11T11:39:41.549Z,99247.93
2018-11-11T11:42:18.934Z,99335.65
2018-11-11T11:44:55.349Z,99335.91
2018-11-11T11:47:31.948Z,99344.70
2018-11-11T11:50:09.330Z,99345.29
2018-11-11T11:52:48.270Z,99349.61
2018-11-11T11:55:27.434Z,99343.11
2018-11-11T11:58:26.265Z,99331.11
2018-11-11T12:01:04.381Z,99357.63
2018-11-11T12:03:39.800Z,99361.73
2018-11-11T12:06:15.710Z,99351.34
2018-11-11T12:08:53.848Z,99335.83
2018-11-11T12:11:27.272Z,99357.81
2018-11-11T12:14:05.642Z,99361.45
2018-11-11T12:16:41.395Z,99363.65
2018-11-11T12:19:18.365Z,99341.78
2018-11-11T12:21:52.802Z,99355.47
2018-11-11T12:24:27.556Z,99362.49
2018-11-11T12:27:02.969Z,99367.70
2018-11-11T12:29:43.126Z,99373.64
2018-11-11T12:32:21.005Z,99382.17
2018-11-11T12:35:00.555Z,99383.16
2018-11-11T12:37:37.965Z,99381.86
2018-11-11T12:40:17.587Z,99389.84
2018-11-11T12:42:54.235Z,99299.28
2018-11-11T12:45:28.827Z,99391.09
2018-11-11T12:48:02.313Z,99316.59
2018-11-11T12:50:40.817Z,99388.77
2018-11-11T12:53:19.352Z,99393.98
2018-11-11T12:59:13.228Z,99405.56
2018-11-11T13:01:52.780Z,99404.59
2018-11-11T13:04:34.403Z,99406.55
2018-11-11T13:07:12.464Z,99411.27
2018-11-11T13:09:48.649Z,99406.91
2018-11-11T13:12:28.619Z,99399.84
2018-11-11T13:17:53.261Z,99397.32
2018-11-11T13:20:34.598Z,99393.56
2018-11-11T13:23:24.428Z,99389.84
2018-11-11T13:26:01.177Z,99391.33
2018-11-11T13:28:37.230Z,99394.09
2018-11-11T13:31:11.960Z,99390.95
2018-11-11T13:33:50.242Z,99389.13
2018-11-11T13:36:33.875Z,99391.66
2018-11-11T13:39:10.565Z,99392.85
2018-11-11T13:41:47.427Z,99392.70
2018-11-11T13:44:23.606Z,99390.56
2018-11-11T13:46:58.460Z,99390.28
2018-11-11T13:49:34.856Z,99383.55
2018-11-11T13:52:10.587Z,99379.22
2018-11-11T13:54:50.611Z,99376.72
2018-11-11T13:57:29.723Z,99369.06
2018-11-11T14:00:13.413Z,99371.19
2018-11-11T14:02:59.363Z,99372.66
2018-11-11T14:05:37.192Z,99373.20
2018-11-11T14:08:11.277Z,99383.19
2018-11-11T14:10:48.557Z,99387.23
2018-11-11T14:13:24.427Z,99384.84
2018-11-11T14:16:03.734Z,99381.48
2018-11-11T14:18:40.211Z,99376.06
2018-11-11T14:21:13.741Z,99390.81
2018-11-11T14:23:51.271Z,99370.80
2018-11-11T14:26:30.536Z,99371.77
2018-11-11T14:29:05.541Z,99363.48
2018-11-11T14:31:40.626Z,99365.94
2018-11-11T14:34:18.488Z,99367.82
2018-11-11T14:36:56.238Z,99369.45
2018-11-11T14:39:32.249Z,99369.36
2018-11-11T14:42:20.801Z,99367.25
2018-11-11T14:44:54.048Z,99368.73
2018-11-11T14:47:31.424Z,99381.36
2018-11-11T14:50:07.914Z,99380.08
2018-11-11T14:52:41.188Z,99374.81
2018-11-11T14:55:22.076Z,99378.30
2018-11-11T14:57:59.542Z,99370.95
2018-11-11T15:00:40.658Z,99360.31
2018-11-11T15:06:12.422Z,99379.08
2018-11-11T15:08:53.997Z,99381.77
2018-11-11T15:11:30.828Z,99379.09
2018-11-11T15:14:12.471Z,99387.29
2018-11-11T15:16:48.367Z,99391.80
2018-11-11T15:19:25.161Z,99391.59
2018-11-11T15:22:01.657Z,99385.44
2018-11-11T15:24:37.057Z,99380.02
2018-11-11T15:27:40.707Z,99388.66
2018-11-11T15:30:29.503Z,99377.13
2018-11-11T15:33:05.845Z,99377.87
2018-11-11T15:36:46.468Z,99374.16
2018-11-11T15:39:24.766Z,99379.56
2018-11-11T15:42:03.044Z,99377.58
2018-11-11T15:44:40.993Z,99378.06
2018-11-11T15:47:20.516Z,99387.09
2018-11-11T15:50:01.198Z,99400.95
2018-11-11T15:52:38.842Z,99396.62
2018-11-11T15:55:18.517Z,99291.36
2018-11-11T15:57:57.954Z,99402.38
2018-11-11T16:00:44.690Z,99407.66
2018-11-11T16:03:20.379Z,99409.84
2018-11-11T16:05:57.006Z,99422.39
2018-11-11T16:08:38.580Z,99422.52
2018-11-11T16:13:53.610Z,99427.14
2018-11-11T16:16:36.524Z,99431.66
2018-11-11T16:19:17.334Z,99434.08
2018-11-11T16:21:54.263Z,99430.41
2018-11-11T16:24:30.559Z,99432.58
2018-11-11T16:27:10.945Z,99442.34
2018-11-11T16:29:57.591Z,99453.84
2018-11-11T16:32:32.316Z,99443.67
2018-11-11T16:35:13.285Z,99450.36
2018-11-11T16:37:51.132Z,99446.56
2018-11-11T16:40:26.572Z,99452.64
2018-11-11T16:43:01.497Z,99460.29
2018-11-11T16:45:44.134Z,99455.45
2018-11-11T16:48:16.557Z,99452.20
2018-11-11T16:50:52.289Z,99460.80
2018-11-11T16:53:27.889Z,99458.47
2018-11-11T16:56:01.545Z,99457.75
2018-11-11T16:58:37.393Z,99458.72
2018-11-11T17:01:17.811Z,99448.53
2018-11-11T17:03:52.308Z,99457.05
2018-11-11T17:06:31.219Z,99458.44
2018-11-11T17:09:07.561Z,99457.09
2018-11-11T17:11:42.288Z,99443.64
2018-11-11T17:14:18.620Z,99443.84
2018-11-11T17:16:59.458Z,99447.03
2018-11-11T17:19:37.978Z,99455.47
2018-11-11T17:22:18.808Z,99438.22
2018-11-11T17:24:54.795Z,99447.48
2018-11-11T17:27:38.581Z,99453.36
2018-11-11T17:30:19.267Z,99446.27
2018-11-11T17:32:58.307Z,99446.05
2018-11-11T17:35:34.585Z,99451.35
2018-11-11T17:38:12.204Z,99443.60
2018-11-11T17:40:48.521Z,99451.93
2018-11-11T17:43:25.752Z,99434.34
2018-11-11T17:46:04.385Z,99439.85
2018-11-11T17:51:30.326Z,99439.17
2018-11-11T17:54:07.034Z,99436.52
2018-11-11T17:59:38.607Z,99437.13
2018-11-11T18:02:37.642Z,99440.48
2018-11-11T18:05:24.857Z,99444.10
2018-11-11T18:08:13.015Z,99448.24
2018-11-11T18:10:52.247Z,99456.38
2018-11-11T18:13:32.130Z,99448.22
2018-11-11T18:16:14.312Z,99460.84
2018-11-11T18:18:53.164Z,99455.44
2018-11-11T18:21:32.260Z,99454.73
2018-11-11T18:24:19.002Z,99447.33
2018-11-11T18:26:57.212Z,99430.23
2018-11-11T18:32:16.501Z,99449.29
2018-11-11T18:34:53.049Z,99450.34
2018-11-11T18:37:33.062Z,99463.20
2018-11-11T18:40:11.797Z,99449.61
2018-11-11T18:42:53.342Z,99470.97
2018-11-11T18:45:30.598Z,99430.31
2018-11-11T18:48:06.426Z,99479.76
2018-11-11T18:50:42.318Z,99487.27
2018-11-11T18:53:18.724Z,99484.27
2018-11-11T18:59:05.435Z,99474.06
2018-11-11T19:01:41.833Z,99484.03
2018-11-11T19:04:17.187Z,99530.95
2018-11-11T19:07:01.524Z,99484.94
2018-11-11T19:09:43.650Z,99487.36
2018-11-11T19:12:19.676Z,99483.59
2018-11-11T19:14:59.303Z,99485.45
2018-11-11T19:17:39.585Z,99488.91
2018-11-11T19:20:15.605Z,99479.92
2018-11-11T19:22:50.635Z,99485.98
2018-11-11T19:25:31.123Z,99482.76
2018-11-11T19:28:07.463Z,99482.55
2018-11-11T19:30:43.363Z,99479.53
2018-11-11T19:33:19.629Z,99491.68
2018-11-11T19:35:56.917Z,99477.59
2018-11-11T19:38:31.485Z,99484.59
2018-11-11T19:41:09.708Z,99495.88
2018-11-11T19:43:50.487Z,99502.89
2018-11-11T19:46:27.348Z,99485.27
2018-11-11T19:49:08.245Z,99494.20
2018-11-11T19:51:42.259Z,99494.77
2018-11-11T19:54:16.670Z,99503.00
2018-11-11T19:56:56.523Z,99509.10
2018-11-11T19:59:35.686Z,99511.19
2018-11-11T20:02:17.281Z,99507.97
2018-11-11T20:04:51.695Z,99504.16
2018-11-11T20:07:36.487Z,99508.24
2018-11-11T20:10:15.823Z,99505.75
2018-11-11T20:12:51.879Z,99515.86
2018-11-11T20:15:32.872Z,99519.34
2018-11-11T20:18:07.672Z,99520.80
2018-11-11T20:20:50.488Z,99532.11
2018-11-11T20:23:29.744Z,99533.39
2018-11-11T20:26:08.033Z,99548.56
2018-11-11T20:28:48.216Z,99547.64
2018-11-11T20:31:34.813Z,99537.14
2018-11-11T20:34:12.268Z,99543.62
2018-11-11T20:36:47.653Z,99535.30
2018-11-11T20:39:21.669Z,99538.34
2018-11-11T20:41:55.294Z,99557.13
2018-11-11T20:44:39.101Z,99541.89
2018-11-11T20:47:11.881Z,99548.87
2018-11-11T20:49:53.153Z,99552.52
2018-11-11T20:52:31.413Z,99564.48
2018-11-11T20:55:08.782Z,99555.37
2018-11-11T20:57:41.653Z,99572.64
2018-11-11T21:00:21.368Z,99579.61
2018-11-11T21:02:53.846Z,99510.42
2018-11-11T21:05:30.192Z,99596.03
2018-11-11T21:08:11.188Z,99586.59
2018-11-11T21:10:57.374Z,99599.73
2018-11-11T21:13:38.727Z,99587.28
2018-11-11T21:16:14.257Z,99592.23
2018-11-11T21:21:50.256Z,99608.66
2018-11-11T21:24:29.921Z,99616.27
2018-11-11T21:27:10.056Z,99608.37
2018-11-11T21:29:51.118Z,99624.92
2018-11-11T21:32:26.730Z,99637.18
2018-11-11T21:35:06.238Z,99647.85
2018-11-11T21:37:52.604Z,99626.73
2018-11-11T21:40:28.079Z,99641.04
2018-11-11T21:43:03.615Z,99648.70
2018-11-11T21:45:41.287Z,99656.41
2018-11-11T21:48:14.643Z,99647.88
2018-11-11T21:50:53.801Z,99629.63
2018-11-11T21:53:45.248Z,99618.91
2018-11-11T21:59:15.321Z,99649.97
2018-11-11T22:01:55.953Z,99663.26
2018-11-11T22:04:33.651Z,99669.59
2018-11-11T22:07:09.216Z,99670.67
2018-11-11T22:09:51.687Z,99674.55
2018-11-11T22:12:27.687Z,99638.99
2018-11-11T22:18:07.753Z,99672.58
2018-11-11T22:20:43.461Z,99689.34
2018-11-11T22:23:21.499Z,99686.67
2018-11-11T22:25:59.828Z,99685.91
2018-11-11T22:28:41.881Z,99686.42
2018-11-11T22:31:19.315Z,99690.08
2018-11-11T22:33:55.212Z,99694.50
2018-11-11T22:36:29.497Z,99698.80
2018-11-11T22:39:03.858Z,99698.57
2018-11-11T22:41:38.937Z,99686.63
2018-11-11T22:44:14.138Z,99687.99
2018-11-11T22:46:48.798Z,99696.00
2018-11-11T22:49:25.367Z,99702.17
2018-11-11T22:52:02.278Z,99693.23
2018-11-11T22:54:37.792Z,99692.71
2018-11-11T22:57:15.322Z,99688.28
2018-11-11T22:59:51.326Z,99688.03
2018-11-11T23:02:27.342Z,99690.59
2018-11-11T23:05:04.426Z,99667.38
2018-11-11T23:07:42.836Z,99682.91
2018-11-11T23:10:15.084Z,99685.27
2018-11-11T23:12:58.046Z,99676.64
2018-11-11T23:15:32.920Z,99687.13
2018-11-11T23:18:11.436Z,99681.45
2018-11-11T23:20:49.953Z,99677.99
2018-11-11T23:23:27.513Z,99683.45
2018-11-11T23:26:03.755Z,99671.96
2018-11-11T23:28:40.195Z,99664.62
2018-11-11T23:31:15.857Z,99639.09
2018-11-11T23:33:50.440Z,99662.23
2018-11-11T23:36:29.798Z,99656.06
2018-11-11T23:39:09.164Z,99674.52
2018-11-11T23:41:48.223Z,99680.38
2018-11-11T23:44:24.632Z,99690.84
2018-11-11T23:46:58.835Z,99688.92
2018-11-11T23:49:42.261Z,99678.60
2018-11-11T23:52:22.062Z,99692.89
2018-11-11T23:55:02.057Z,99701.61
2018-11-11T23:57:36.897Z,99700.08
